sensor_id;sensor_type;location;lat;lon;timestamp;pressure;altitude;pressure_sealevel;temperature;humidity
69780;BME280;57052;55.602;38.096;2022-12-18T00:01:12;99850.91;;;-0.61;71.07
69780;BME280;57052;55.602;38.096;2022-12-18T00:03:38;99834.38;;;-0.63;70.88
69780;BME280;57052;55.602;38.096;2022-12-18T00:06:04;99832.53;;;-0.63;70.75
69780;BME280;57052;55.602;38.096;2022-12-18T00:08:30;99825.38;;;-0.69;71.12
69780;BME280;57052;55.602;38.096;2022-12-18T00:10:55;99820.25;;;-0.64;70.80
69780;BME280;57052;55.602;38.096;2022-12-18T00:13:28;99813.72;;;-0.68;71.21
69780;BME280;57052;55.602;38.096;2022-12-18T00:15:53;99808.41;;;-0.68;70.71
69780;BME280;57052;55.602;38.096;2022-12-18T00:18:19;99796.75;;;-0.80;70.60
69780;BME280;57052;55.602;38.096;2022-12-18T00:20:44;99799.41;;;-0.74;70.91
69780;BME280;57052;55.602;38.096;2022-12-18T00:23:10;99786.75;;;-0.78;71.37
69780;BME280;57052;55.602;38.096;2022-12-18T00:25:36;99794.28;;;-0.75;70.84
69780;BME280;57052;55.602;38.096;2022-12-18T00:28:04;99788.97;;;-0.75;71.04
69780;BME280;57052;55.602;38.096;2022-12-18T00:30:30;99780.41;;;-0.77;71.02
69780;BME280;57052;55.602;38.096;2022-12-18T00:32:57;99785.13;;;-0.79;71.01
69780;BME280;57052;55.602;38.096;2022-12-18T00:35:23;99770.81;;;-0.85;70.97
69780;BME280;57052;55.602;38.096;2022-12-18T00:37:48;99750.00;;;-0.94;70.79
69780;BME280;57052;55.602;38.096;2022-12-18T00:40:14;99758.16;;;-0.89;71.23
69780;BME280;57052;55.602;38.096;2022-12-18T00:42:40;99750.84;;;-1.00;70.84
69780;BME280;57052;55.602;38.096;2022-12-18T00:45:26;99753.47;;;-0.94;71.22
69780;BME280;57052;55.602;38.096;2022-12-18T00:47:52;99741.19;;;-0.95;70.67
69780;BME280;57052;55.602;38.096;2022-12-18T00:50:18;99737.75;;;-0.95;70.75
69780;BME280;57052;55.602;38.096;2022-12-18T00:52:44;99732.44;;;-1.02;71.14
69780;BME280;57052;55.602;38.096;2022-12-18T00:55:11;99710.81;;;-1.18;71.12
69780;BME280;57052;55.602;38.096;2022-12-18T00:57:37;99719.56;;;-1.05;70.98
69780;BME280;57052;55.602;38.096;2022-12-18T01:00:04;99727.91;;;-0.95;71.13
69780;BME280;57052;55.602;38.096;2022-12-18T01:02:31;99708.75;;;-1.03;71.14
69780;BME280;57052;55.602;38.096;2022-12-18T01:04:56;99702.84;;;-1.05;71.26
69780;BME280;57052;55.602;38.096;2022-12-18T01:07:22;99709.34;;;-1.01;71.14
69780;BME280;57052;55.602;38.096;2022-12-18T01:09:48;99704.84;;;-1.07;71.07
69780;BME280;57052;55.602;38.096;2022-12-18T01:12:13;99692.44;;;-1.13;70.99
69780;BME280;57052;55.602;38.096;2022-12-18T01:14:39;99698.31;;;-1.05;71.35
69780;BME280;57052;55.602;38.096;2022-12-18T01:17:04;99683.63;;;-1.14;70.93
69780;BME280;57052;55.602;38.096;2022-12-18T01:19:30;99683.00;;;-1.09;71.19
69780;BME280;57052;55.602;38.096;2022-12-18T01:21:56;99681.81;;;-1.13;70.63
69780;BME280;57052;55.602;38.096;2022-12-18T01:24:21;99681.81;;;-1.13;70.96
69780;BME280;57052;55.602;38.096;2022-12-18T01:26:47;99692.41;;;-1.07;70.93
69780;BME280;57052;55.602;38.096;2022-12-18T01:29:13;99687.09;;;-1.07;70.62
69780;BME280;57052;55.602;38.096;2022-12-18T01:31:38;99679.34;;;-1.08;70.86
69780;BME280;57052;55.602;38.096;2022-12-18T01:34:04;99676.69;;;-1.08;70.75
69780;BME280;57052;55.602;38.096;2022-12-18T01:36:35;99689.56;;;-1.05;70.59
69780;BME280;57052;55.602;38.096;2022-12-18T01:39:04;99680.75;;;-1.06;70.50
69780;BME280;57052;55.602;38.096;2022-12-18T01:41:31;99675.84;;;-1.02;70.47
69780;BME280;57052;55.602;38.096;2022-12-18T01:44:50;99673.81;;;-1.07;70.60
69780;BME280;57052;55.602;38.096;2022-12-18T01:47:49;99661.97;;;-1.11;70.30
69780;BME280;57052;55.602;38.096;2022-12-18T01:50:30;99668.72;;;-1.08;70.35
69780;BME280;57052;55.602;38.096;2022-12-18T01:53:07;99660.34;;;-1.12;69.78
69780;BME280;57052;55.602;38.096;2022-12-18T01:55:53;99658.53;;;-1.18;70.20
69780;BME280;57052;55.602;38.096;2022-12-18T01:58:24;99661.16;;;-1.11;70.18
69780;BME280;57052;55.602;38.096;2022-12-18T02:00:55;99661.16;;;-1.11;70.34
69780;BME280;57052;55.602;38.096;2022-12-18T02:03:21;99648.91;;;-1.12;70.20
69780;BME280;57052;55.602;38.096;2022-12-18T02:06:33;99653.19;;;-1.11;70.47
69780;BME280;57052;55.602;38.096;2022-12-18T02:08:48;99650.13;;;-1.15;70.18
69780;BME280;57052;55.602;38.096;2022-12-18T02:11:39;99646.25;;;-1.12;70.49
69780;BME280;57052;55.602;38.096;2022-12-18T02:14:23;99634.19;;;-1.15;70.10
69780;BME280;57052;55.602;38.096;2022-12-18T02:17:13;99629.72;;;-1.14;70.38
69780;BME280;57052;55.602;38.096;2022-12-18T02:20:35;99637.28;;;-1.18;70.02
69780;BME280;57052;55.602;38.096;2022-12-18T02:23:18;99632.38;;;-1.27;70.47
69780;BME280;57052;55.602;38.096;2022-12-18T02:28:36;99620.16;;;-1.28;70.44
69780;BME280;57052;55.602;38.096;2022-12-18T02:31:06;99625.06;;;-1.25;70.25
69780;BME280;57052;55.602;38.096;2022-12-18T02:33:34;99627.91;;;-1.27;70.48
69780;BME280;57052;55.602;38.096;2022-12-18T02:36:01;99626.28;;;-1.28;70.49
69780;BME280;57052;55.602;38.096;2022-12-18T02:38:29;99627.91;;;-1.27;70.12
69780;BME280;57052;55.602;38.096;2022-12-18T02:40:56;99625.47;;;-1.28;70.00
69780;BME280;57052;55.602;38.096;2022-12-18T02:43:22;99629.53;;;-1.26;69.73
69780;BME280;57052;55.602;38.096;2022-12-18T02:45:57;99625.06;;;-1.32;70.24
69780;BME280;57052;55.602;38.096;2022-12-18T02:48:29;99634.84;;;-1.33;70.52
69780;BME280;57052;55.602;38.096;2022-12-18T02:53:29;99653.88;;;-1.36;70.53
69780;BME280;57052;55.602;38.096;2022-12-18T02:59:01;99646.31;;;-1.39;70.29
69780;BME280;57052;55.602;38.096;2022-12-18T03:04:11;99644.28;;;-1.50;70.32
69780;BME280;57052;55.602;38.096;2022-12-18T03:06:42;99662.66;;;-1.42;70.30
69780;BME280;57052;55.602;38.096;2022-12-18T03:09:14;99657.34;;;-1.42;70.28
69780;BME280;57052;55.602;38.096;2022-12-18T03:11:47;99648.34;;;-1.47;70.55
69780;BME280;57052;55.602;38.096;2022-12-18T03:14:37;99630.41;;;-1.52;70.41
69780;BME280;57052;55.602;38.096;2022-12-18T03:17:05;99640.59;;;-1.49;70.54
69780;BME280;57052;55.602;38.096;2022-12-18T03:19:33;99626.34;;;-1.61;70.35
69780;BME280;57052;55.602;38.096;2022-12-18T03:22:02;99654.28;;;-1.52;70.63
69780;BME280;57052;55.602;38.096;2022-12-18T03:24:29;99666.09;;;-1.48;70.22
69780;BME280;57052;55.602;38.096;2022-12-18T03:27:06;99660.41;;;-1.58;70.09
69780;BME280;57052;55.602;38.096;2022-12-18T03:29:36;99664.69;;;-1.50;70.49
69780;BME280;57052;55.602;38.096;2022-12-18T03:32:21;99648.16;;;-1.59;70.12
69780;BME280;57052;55.602;38.096;2022-12-18T03:34:51;99656.13;;;-1.52;69.99
69780;BME280;57052;55.602;38.096;2022-12-18T03:37:19;99646.53;;;-1.47;69.82
69780;BME280;57052;55.602;38.096;2022-12-18T03:39:44;99626.94;;;-1.59;70.22
69780;BME280;57052;55.602;38.096;2022-12-18T03:42:29;99646.53;;;-1.47;70.35
69780;BME280;57052;55.602;38.096;2022-12-18T03:53:48;99651.84;;;-1.60;70.42
69780;BME280;57052;55.602;38.096;2022-12-18T03:56:16;99663.06;;;-1.58;70.31
69780;BME280;57052;55.602;38.096;2022-12-18T03:58:44;99651.63;;;-1.65;70.05
69780;BME280;57052;55.602;38.096;2022-12-18T04:01:12;99649.59;;;-1.63;69.99
69780;BME280;57052;55.602;38.096;2022-12-18T04:03:41;99659.59;;;-1.58;70.17
69780;BME280;57052;55.602;38.096;2022-12-18T04:06:08;99649.00;;;-1.58;69.90
69780;BME280;57052;55.602;38.096;2022-12-18T04:08:35;99654.50;;;-1.60;70.10
69780;BME280;57052;55.602;38.096;2022-12-18T04:11:02;99651.84;;;-1.60;69.89
69780;BME280;57052;55.602;38.096;2022-12-18T04:13:30;99637.97;;;-1.75;69.99
69780;BME280;57052;55.602;38.096;2022-12-18T04:15:57;99658.97;;;-1.67;70.17
69780;BME280;57052;55.602;38.096;2022-12-18T04:18:22;99658.16;;;-1.67;69.83
69780;BME280;57052;55.602;38.096;2022-12-18T04:20:48;99665.31;;;-1.68;70.06
69780;BME280;57052;55.602;38.096;2022-12-18T04:23:14;99670.22;;;-1.71;69.53
69780;BME280;57052;55.602;38.096;2022-12-18T04:25:39;99675.31;;;-1.70;70.17
69780;BME280;57052;55.602;38.096;2022-12-18T04:28:05;99677.75;;;-1.75;69.68
69780;BME280;57052;55.602;38.096;2022-12-18T04:30:31;99685.53;;;-1.67;69.82
69780;BME280;57052;55.602;38.096;2022-12-18T04:32:56;99687.97;;;-1.65;69.94
69780;BME280;57052;55.602;38.096;2022-12-18T04:35:22;99699.38;;;-1.65;69.38
69780;BME280;57052;55.602;38.096;2022-12-18T04:37:48;99705.53;;;-1.71;69.52
69780;BME280;57052;55.602;38.096;2022-12-18T04:40:13;99697.56;;;-1.71;69.58
69780;BME280;57052;55.602;38.096;2022-12-18T04:42:40;99705.91;;;-1.67;69.40
69780;BME280;57052;55.602;38.096;2022-12-18T04:45:06;99706.53;;;-1.72;69.43
69780;BME280;57052;55.602;38.096;2022-12-18T04:47:32;99720.19;;;-1.75;69.13
69780;BME280;57052;55.602;38.096;2022-12-18T04:49:58;99711.84;;;-1.78;69.40
69780;BME280;57052;55.602;38.096;2022-12-18T04:52:23;99710.81;;;-1.84;69.10
69780;BME280;57052;55.602;38.096;2022-12-18T04:54:49;99712.47;;;-1.83;69.02
69780;BME280;57052;55.602;38.096;2022-12-18T04:57:15;99697.31;;;-2.02;69.36
69780;BME280;57052;55.602;38.096;2022-12-18T04:59:40;99746.94;;;-1.83;69.43
69780;BME280;57052;55.602;38.096;2022-12-18T05:02:06;99753.25;;;-1.84;69.50
69780;BME280;57052;55.602;38.096;2022-12-18T05:04:31;99760.22;;;-1.83;69.60
69780;BME280;57052;55.602;38.096;2022-12-18T05:06:57;99764.25;;;-1.87;69.24
69780;BME280;57052;55.602;38.096;2022-12-18T05:09:23;99770.16;;;-1.85;69.44
69780;BME280;57052;55.602;38.096;2022-12-18T05:11:48;99772.81;;;-1.85;69.59
69780;BME280;57052;55.602;38.096;2022-12-18T05:14:14;99773.03;;;-1.86;68.99
69780;BME280;57052;55.602;38.096;2022-12-18T05:16:40;99767.13;;;-1.88;69.34
69780;BME280;57052;55.602;38.096;2022-12-18T05:19:05;99775.91;;;-1.88;69.71
69780;BME280;57052;55.602;38.096;2022-12-18T05:21:31;99779.34;;;-1.87;69.87
69780;BME280;57052;55.602;38.096;2022-12-18T05:23:56;99793.22;;;-1.92;69.79
69780;BME280;57052;55.602;38.096;2022-12-18T05:26:22;99792.59;;;-1.94;69.05
69780;BME280;57052;55.602;38.096;2022-12-18T05:28:47;99786.47;;;-1.95;69.25
69780;BME280;57052;55.602;38.096;2022-12-18T05:31:14;99788.09;;;-2.00;69.49
69780;BME280;57052;55.602;38.096;2022-12-18T05:33:39;99789.94;;;-2.01;69.49
69780;BME280;57052;55.602;38.096;2022-12-18T05:36:07;99788.91;;;-2.00;70.01
69780;BME280;57052;55.602;38.096;2022-12-18T05:38:34;99798.50;;;-1.99;69.52
69780;BME280;57052;55.602;38.096;2022-12-18T05:41:00;99805.03;;;-2.01;69.62
69780;BME280;57052;55.602;38.096;2022-12-18T05:43:27;99799.91;;;-2.03;69.92
69780;BME280;57052;55.602;38.096;2022-12-18T05:45:53;99799.34;;;-1.98;69.56
69780;BME280;57052;55.602;38.096;2022-12-18T05:48:19;99808.91;;;-1.97;69.80
69780;BME280;57052;55.602;38.096;2022-12-18T05:50:47;99813.22;;;-1.96;69.29
69780;BME280;57052;55.602;38.096;2022-12-18T05:53:14;99817.47;;;-1.95;69.87
69780;BME280;57052;55.602;38.096;2022-12-18T05:55:41;99821.78;;;-1.94;69.24
69780;BME280;57052;55.602;38.096;2022-12-18T05:58:09;99830.34;;;-1.92;69.23
69780;BME280;57052;55.602;38.096;2022-12-18T06:00:37;99819.69;;;-2.05;69.37
69780;BME280;57052;55.602;38.096;2022-12-18T06:03:07;99824.22;;;-1.99;69.62
69780;BME280;57052;55.602;38.096;2022-12-18T06:05:42;99836.03;;;-1.95;69.51
69780;BME280;57052;55.602;38.096;2022-12-18T06:08:09;99828.28;;;-2.03;69.40
69780;BME280;57052;55.602;38.096;2022-12-18T06:10:35;99847.28;;;-1.93;69.11
69780;BME280;57052;55.602;38.096;2022-12-18T06:13:01;99838.69;;;-2.02;69.80
69780;BME280;57052;55.602;38.096;2022-12-18T06:15:27;99858.28;;;-1.96;69.13
69780;BME280;57052;55.602;38.096;2022-12-18T06:17:52;99861.34;;;-1.92;69.21
69780;BME280;57052;55.602;38.096;2022-12-18T06:20:18;99866.03;;;-1.95;69.64
69780;BME280;57052;55.602;38.096;2022-12-18T06:22:44;99867.69;;;-1.93;69.29
69780;BME280;57052;55.602;38.096;2022-12-18T06:25:10;99864.00;;;-1.92;68.89
69780;BME280;57052;55.602;38.096;2022-12-18T06:27:35;99854.44;;;-1.93;68.87
69780;BME280;57052;55.602;38.096;2022-12-18T06:30:02;99867.09;;;-1.89;68.74
69780;BME280;57052;55.602;38.096;2022-12-18T06:32:30;99852.59;;;-1.93;68.74
69780;BME280;57052;55.602;38.096;2022-12-18T06:34:59;99864.66;;;-1.90;68.93
69780;BME280;57052;55.602;38.096;2022-12-18T06:37:25;99867.91;;;-1.88;69.11
69780;BME280;57052;55.602;38.096;2022-12-18T06:39:52;99885.50;;;-1.81;69.09
69780;BME280;57052;55.602;38.096;2022-12-18T06:42:18;99879.75;;;-1.84;68.83
69780;BME280;57052;55.602;38.096;2022-12-18T06:44:43;99898.53;;;-1.79;68.17
69780;BME280;57052;55.602;38.096;2022-12-18T06:47:09;99905.03;;;-1.88;68.63
69780;BME280;57052;55.602;38.096;2022-12-18T06:49:35;99921.19;;;-1.83;68.78
69780;BME280;57052;55.602;38.096;2022-12-18T06:52:00;99923.41;;;-1.87;68.30
69780;BME280;57052;55.602;38.096;2022-12-18T06:54:26;99925.44;;;-1.89;68.60
69780;BME280;57052;55.602;38.096;2022-12-18T06:56:51;99923.56;;;-1.95;68.26
69780;BME280;57052;55.602;38.096;2022-12-18T06:59:17;99932.78;;;-1.91;68.14
69780;BME280;57052;55.602;38.096;2022-12-18T07:01:42;99946.06;;;-1.84;68.34
69780;BME280;57052;55.602;38.096;2022-12-18T07:04:08;99964.44;;;-1.83;68.78
69780;BME280;57052;55.602;38.096;2022-12-18T07:06:34;99966.06;;;-1.82;68.67
69780;BME280;57052;55.602;38.096;2022-12-18T07:09:02;99970.75;;;-1.84;67.84
69780;BME280;57052;55.602;38.096;2022-12-18T07:11:27;99973.19;;;-1.82;68.09
69780;BME280;57052;55.602;38.096;2022-12-18T07:13:53;99959.09;;;-1.89;68.46
69780;BME280;57052;55.602;38.096;2022-12-18T07:16:20;99965.88;;;-1.80;68.22
69780;BME280;57052;55.602;38.096;2022-12-18T07:18:47;99964.22;;;-1.88;68.32
69780;BME280;57052;55.602;38.096;2022-12-18T07:21:15;99970.91;;;-1.92;68.37
69780;BME280;57052;55.602;38.096;2022-12-18T07:23:41;99977.66;;;-1.89;68.90
69780;BME280;57052;55.602;38.096;2022-12-18T07:26:12;99979.53;;;-1.83;68.73
69780;BME280;57052;55.602;38.096;2022-12-18T07:28:39;99983.63;;;-1.81;68.73
69780;BME280;57052;55.602;38.096;2022-12-18T07:31:07;99988.88;;;-1.87;68.60
69780;BME280;57052;55.602;38.096;2022-12-18T07:33:34;99985.44;;;-1.88;68.60
69780;BME280;57052;55.602;38.096;2022-12-18T07:36:01;100008.56;;;-1.75;68.50
69780;BME280;57052;55.602;38.096;2022-12-18T07:38:29;100001.00;;;-1.78;68.50
69780;BME280;57052;55.602;38.096;2022-12-18T07:41:26;100017.56;;;-1.70;68.10
69780;BME280;57052;55.602;38.096;2022-12-18T07:43:51;100007.91;;;-1.77;68.05
69780;BME280;57052;55.602;38.096;2022-12-18T07:46:17;100020.22;;;-1.70;67.98
69780;BME280;57052;55.602;38.096;2022-12-18T07:48:43;100030.44;;;-1.67;67.99
69780;BME280;57052;55.602;38.096;2022-12-18T07:51:09;100030.06;;;-1.64;67.93
69780;BME280;57052;55.602;38.096;2022-12-18T07:53:38;100027.19;;;-1.62;68.11
69780;BME280;57052;55.602;38.096;2022-12-18T07:56:06;100026.19;;;-1.61;67.78
69780;BME280;57052;55.602;38.096;2022-12-18T07:58:32;100033.56;;;-1.57;67.86
69780;BME280;57052;55.602;38.096;2022-12-18T08:01:06;100041.13;;;-1.54;67.50
69780;BME280;57052;55.602;38.096;2022-12-18T08:03:33;100035.44;;;-1.51;67.24
69780;BME280;57052;55.602;38.096;2022-12-18T08:06:06;100037.25;;;-1.51;67.52
69780;BME280;57052;55.602;38.096;2022-12-18T08:08:33;100039.09;;;-1.52;67.70
69780;BME280;57052;55.602;38.096;2022-12-18T08:10:59;100036.81;;;-1.55;66.84
69780;BME280;57052;55.602;38.096;2022-12-18T08:13:26;99997.53;;;-1.72;67.47
69780;BME280;57052;55.602;38.096;2022-12-18T08:16:03;100044.25;;;-1.44;66.91
69780;BME280;57052;55.602;38.096;2022-12-18T08:18:29;100044.28;;;-1.37;67.58
69780;BME280;57052;55.602;38.096;2022-12-18T08:20:55;100044.09;;;-1.36;67.18
69780;BME280;57052;55.602;38.096;2022-12-18T08:23:21;100049.34;;;-1.42;67.21
69780;BME280;57052;55.602;38.096;2022-12-18T08:25:47;100072.88;;;-1.33;67.55
69780;BME280;57052;55.602;38.096;2022-12-18T08:28:13;100075.94;;;-1.36;66.70
69780;BME280;57052;55.602;38.096;2022-12-18T08:30:44;100084.53;;;-1.34;66.85
69780;BME280;57052;55.602;38.096;2022-12-18T08:33:09;100093.69;;;-1.36;66.91
69780;BME280;57052;55.602;38.096;2022-12-18T08:35:36;100100.47;;;-1.34;66.92
69780;BME280;57052;55.602;38.096;2022-12-18T08:38:03;100095.91;;;-1.40;66.82
69780;BME280;57052;55.602;38.096;2022-12-18T08:40:28;100111.91;;;-1.33;66.61
69780;BME280;57052;55.602;38.096;2022-12-18T08:42:54;100114.75;;;-1.35;66.73
69780;BME280;57052;55.602;38.096;2022-12-18T08:45:38;100115.31;;;-1.39;66.29
69780;BME280;57052;55.602;38.096;2022-12-18T08:48:04;100128.22;;;-1.36;66.63
69780;BME280;57052;55.602;38.096;2022-12-18T08:50:29;100118.34;;;-1.49;66.56
69780;BME280;57052;55.602;38.096;2022-12-18T08:52:55;100126.78;;;-1.39;66.73
69780;BME280;57052;55.602;38.096;2022-12-18T08:55:20;100126.56;;;-1.37;66.67
69780;BME280;57052;55.602;38.096;2022-12-18T08:57:49;100134.34;;;-1.36;66.62
69780;BME280;57052;55.602;38.096;2022-12-18T09:00:15;100121.69;;;-1.34;66.19
69780;BME280;57052;55.602;38.096;2022-12-18T09:02:41;100132.09;;;-1.32;66.40
69780;BME280;57052;55.602;38.096;2022-12-18T09:05:07;100129.28;;;-1.31;66.72
69780;BME280;57052;55.602;38.096;2022-12-18T09:07:32;100120.03;;;-1.41;66.30
69780;BME280;57052;55.602;38.096;2022-12-18T09:09:58;100127.41;;;-1.30;66.32
69780;BME280;57052;55.602;38.096;2022-12-18T09:12:23;100140.69;;;-1.30;66.35
69780;BME280;57052;55.602;38.096;2022-12-18T09:14:49;100146.59;;;-1.35;66.47
69780;BME280;57052;55.602;38.096;2022-12-18T09:17:15;100145.16;;;-1.37;66.24
69780;BME280;57052;55.602;38.096;2022-12-18T09:19:40;100146.13;;;-1.45;66.35
69780;BME280;57052;55.602;38.096;2022-12-18T09:22:06;100161.53;;;-1.34;66.78
69780;BME280;57052;55.602;38.096;2022-12-18T09:24:34;100169.66;;;-1.35;66.35
69780;BME280;57052;55.602;38.096;2022-12-18T09:27:00;100171.34;;;-1.27;66.50
69780;BME280;57052;55.602;38.096;2022-12-18T09:29:25;100169.34;;;-1.25;66.49
69780;BME280;57052;55.602;38.096;2022-12-18T09:31:51;100158.50;;;-1.24;66.52
69780;BME280;57052;55.602;38.096;2022-12-18T09:34:17;100149.47;;;-1.30;66.77
69780;BME280;57052;55.602;38.096;2022-12-18T09:36:43;100151.31;;;-1.30;66.31
69780;BME280;57052;55.602;38.096;2022-12-18T09:39:08;100149.25;;;-1.35;66.47
69780;BME280;57052;55.602;38.096;2022-12-18T09:44:09;100175.63;;;-1.33;66.20
69780;BME280;57052;55.602;38.096;2022-12-18T09:46:39;100172.31;;;-1.35;66.59
69780;BME280;57052;55.602;38.096;2022-12-18T09:49:09;100172.88;;;-1.46;66.74
69780;BME280;57052;55.602;38.096;2022-12-18T09:51:42;100174.25;;;-1.50;66.74
69780;BME280;57052;55.602;38.096;2022-12-18T09:54:18;100182.44;;;-1.45;67.09
69780;BME280;57052;55.602;38.096;2022-12-18T09:56:46;100185.94;;;-1.45;66.98
69780;BME280;57052;55.602;38.096;2022-12-18T09:59:24;100195.41;;;-1.36;67.63
69780;BME280;57052;55.602;38.096;2022-12-18T10:01:52;100192.31;;;-1.39;67.24
69780;BME280;57052;55.602;38.096;2022-12-18T10:04:17;100210.94;;;-1.33;67.21
69780;BME280;57052;55.602;38.096;2022-12-18T10:06:52;100223.81;;;-1.30;67.15
69780;BME280;57052;55.602;38.096;2022-12-18T10:09:28;100225.84;;;-1.32;66.95
69780;BME280;57052;55.602;38.096;2022-12-18T10:12:08;100225.25;;;-1.34;66.67
69780;BME280;57052;55.602;38.096;2022-12-18T10:15:04;100200.78;;;-1.50;66.64
69780;BME280;57052;55.602;38.096;2022-12-18T10:17:51;100199.22;;;-1.45;67.05
69780;BME280;57052;55.602;38.096;2022-12-18T10:20:33;100212.78;;;-1.33;67.32
69780;BME280;57052;55.602;38.096;2022-12-18T10:23:04;100216.69;;;-1.29;67.24
69780;BME280;57052;55.602;38.096;2022-12-18T10:25:44;100217.31;;;-1.27;67.57
69780;BME280;57052;55.602;38.096;2022-12-18T10:28:15;100212.44;;;-1.23;67.44
69780;BME280;57052;55.602;38.096;2022-12-18T10:30:42;100217.38;;;-1.20;67.33
69780;BME280;57052;55.602;38.096;2022-12-18T10:33:13;100219.13;;;-1.27;66.92
69780;BME280;57052;55.602;38.096;2022-12-18T10:35:41;100223.44;;;-1.26;66.91
69780;BME280;57052;55.602;38.096;2022-12-18T10:41:07;100197.38;;;-1.44;67.75
69780;BME280;57052;55.602;38.096;2022-12-18T10:46:44;100223.41;;;-1.33;67.91
69780;BME280;57052;55.602;38.096;2022-12-18T10:49:31;100177.19;;;-1.66;67.75
69780;BME280;57052;55.602;38.096;2022-12-18T10:52:17;100256.06;;;-1.33;68.01
69780;BME280;57052;55.602;38.096;2022-12-18T10:54:52;100251.97;;;-1.35;68.01
69780;BME280;57052;55.602;38.096;2022-12-18T10:59:53;100275.06;;;-1.36;68.15
69780;BME280;57052;55.602;38.096;2022-12-18T11:02:38;100278.09;;;-1.39;68.42
69780;BME280;57052;55.602;38.096;2022-12-18T11:05:33;100280.50;;;-1.44;68.40
69780;BME280;57052;55.602;38.096;2022-12-18T11:08:02;100297.09;;;-1.35;68.25
69780;BME280;57052;55.602;38.096;2022-12-18T11:10:37;100297.75;;;-1.33;68.69
69780;BME280;57052;55.602;38.096;2022-12-18T11:13:25;100297.53;;;-1.32;68.32
69780;BME280;57052;55.602;38.096;2022-12-18T11:15:51;100289.38;;;-1.30;68.44
69780;BME280;57052;55.602;38.096;2022-12-18T11:18:33;100290.44;;;-1.24;68.49
69780;BME280;57052;55.602;38.096;2022-12-18T11:21:05;100297.41;;;-1.23;68.72
69780;BME280;57052;55.602;38.096;2022-12-18T11:23:32;100297.50;;;-1.38;68.42
69780;BME280;57052;55.602;38.096;2022-12-18T11:26:01;100302.66;;;-1.30;68.48
69780;BME280;57052;55.602;38.096;2022-12-18T11:29:07;100302.47;;;-1.28;69.04
69780;BME280;57052;55.602;38.096;2022-12-18T11:31:27;100304.09;;;-1.27;68.91
69780;BME280;57052;55.602;38.096;2022-12-18T11:34:10;100300.56;;;-1.35;68.87
69780;BME280;57052;55.602;38.096;2022-12-18T11:36:45;100312.06;;;-1.27;68.46
69780;BME280;57052;55.602;38.096;2022-12-18T11:39:45;100313.69;;;-1.33;68.95
69780;BME280;57052;55.602;38.096;2022-12-18T11:46:00;100329.16;;;-1.37;68.67
69780;BME280;57052;55.602;38.096;2022-12-18T11:50:50;100334.41;;;-1.43;68.26
69780;BME280;57052;55.602;38.096;2022-12-18T11:53:17;100334.59;;;-1.45;68.71
69780;BME280;57052;55.602;38.096;2022-12-18T11:58:47;100350.34;;;-1.43;68.56
69780;BME280;57052;55.602;38.096;2022-12-18T12:15:11;100375.66;;;-1.62;69.28
69780;BME280;57052;55.602;38.096;2022-12-18T12:17:47;100386.91;;;-1.60;68.95
69780;BME280;57052;55.602;38.096;2022-12-18T12:23:22;100385.28;;;-1.61;68.82
69780;BME280;57052;55.602;38.096;2022-12-18T12:26:07;100377.78;;;-1.72;68.78
69780;BME280;57052;55.602;38.096;2022-12-18T12:34:06;100402.72;;;-1.52;69.04
69780;BME280;57052;55.602;38.096;2022-12-18T12:39:36;100415.53;;;-1.55;69.01
69780;BME280;57052;55.602;38.096;2022-12-18T12:42:14;100411.41;;;-1.58;68.95
69780;BME280;57052;55.602;38.096;2022-12-18T12:45:02;100415.72;;;-1.57;69.15
69780;BME280;57052;55.602;38.096;2022-12-18T12:47:37;100433.09;;;-1.54;69.20
69780;BME280;57052;55.602;38.096;2022-12-18T12:50:05;100447.28;;;-1.47;69.29
69780;BME280;57052;55.602;38.096;2022-12-18T12:52:40;100438.41;;;-1.54;69.15
69780;BME280;57052;55.602;38.096;2022-12-18T12:55:21;100447.84;;;-1.52;68.88
69780;BME280;57052;55.602;38.096;2022-12-18T12:58:00;100446.56;;;-1.56;68.81
69780;BME280;57052;55.602;38.096;2022-12-18T13:00:36;100453.88;;;-1.58;69.23
69780;BME280;57052;55.602;38.096;2022-12-18T13:05:49;100455.19;;;-1.68;68.92
69780;BME280;57052;55.602;38.096;2022-12-18T13:08:31;100471.38;;;-1.63;69.15
69780;BME280;57052;55.602;38.096;2022-12-18T13:10:58;100472.28;;;-1.56;69.23
69780;BME280;57052;55.602;38.096;2022-12-18T13:14:03;100474.41;;;-1.66;69.10
69780;BME280;57052;55.602;38.096;2022-12-18T13:16:29;100474.56;;;-1.68;69.13
69780;BME280;57052;55.602;38.096;2022-12-18T13:18:55;100488.22;;;-1.71;68.85
69780;BME280;57052;55.602;38.096;2022-12-18T13:21:33;100486.28;;;-1.77;68.72
69780;BME280;57052;55.602;38.096;2022-12-18T13:24:21;100496.53;;;-1.74;69.17
69780;BME280;57052;55.602;38.096;2022-12-18T13:26:48;100503.13;;;-1.70;69.42
69780;BME280;57052;55.602;38.096;2022-12-18T13:29:43;100509.81;;;-1.74;69.10
69780;BME280;57052;55.602;38.096;2022-12-18T13:32:36;100513.66;;;-1.76;69.34
69780;BME280;57052;55.602;38.096;2022-12-18T13:37:56;100522.25;;;-1.74;69.12
69780;BME280;57052;55.602;38.096;2022-12-18T13:45:48;100542.84;;;-1.76;69.17
69780;BME280;57052;55.602;38.096;2022-12-18T13:48:22;100540.81;;;-1.74;69.07
69780;BME280;57052;55.602;38.096;2022-12-18T13:50:56;100527.19;;;-1.86;69.41
69780;BME280;57052;55.602;38.096;2022-12-18T13:53:26;100551.00;;;-1.78;69.63
69780;BME280;57052;55.602;38.096;2022-12-18T13:55:53;100558.47;;;-1.81;69.78
69780;BME280;57052;55.602;38.096;2022-12-18T13:58:18;100571.13;;;-1.83;69.74
69780;BME280;57052;55.602;38.096;2022-12-18T14:00:44;100564.34;;;-1.86;69.60
69780;BME280;57052;55.602;38.096;2022-12-18T14:03:24;100576.97;;;-1.88;69.82
69780;BME280;57052;55.602;38.096;2022-12-18T14:06:05;100573.75;;;-1.98;69.52
69780;BME280;57052;55.602;38.096;2022-12-18T14:08:38;100586.91;;;-1.90;70.00
69780;BME280;57052;55.602;38.096;2022-12-18T14:11:05;100590.38;;;-1.89;69.39
69780;BME280;57052;55.602;38.096;2022-12-18T14:13:38;100595.69;;;-1.89;69.42
69780;BME280;57052;55.602;38.096;2022-12-18T14:16:06;100598.06;;;-1.95;69.67
69780;BME280;57052;55.602;38.096;2022-12-18T14:18:46;100602.03;;;-1.90;69.51